Wetterdaten: Woche 28.01.19 - 03.02.19 (KW5)
Datum Zeit Temperatur Luftfeuchte Luftdruck Niederschlag Windrichtung Sonnenschein Solar Wind
28.01.2019 00:00 0,9 C 92 % 996,2 hPa 0,0 l/m W 0,00 h 0 W/m 21,8 km/h (4 Bft)
28.01.2019 01:00 0,7 C 93 % 997,2 hPa 0,0 l/m W 0,00 h 0 W/m 21,0 km/h (4 Bft)
28.01.2019 02:00 0,5 C 94 % 997,3 hPa 0,0 l/m W-SW 0,00 h 0 W/m 24,7 km/h (4 Bft)
28.01.2019 03:00 0,6 C 92 % 997,1 hPa 0,0 l/m W 0,00 h 0 W/m 28,3 km/h (4 Bft)
28.01.2019 04:00 0,6 C 91 % 997,1 hPa 0,0 l/m W-SW 0,00 h 0 W/m 24,0 km/h (4 Bft)
28.01.2019 05:00 0,5 C 91 % 997,1 hPa 0,0 l/m W-SW 0,00 h 0 W/m 25,7 km/h (4 Bft)
28.01.2019 06:00 0,3 C 92 % 997,0 hPa 0,0 l/m W-SW 0,00 h 0 W/m 24,8 km/h (4 Bft)
28.01.2019 07:00 0,3 C 90 % 997,2 hPa 0,0 l/m W 0,00 h 5 W/m 26,4 km/h (4 Bft)
28.01.2019 08:00 0,2 C 91 % 997,2 hPa 0,0 l/m W-SW 0,08 h 35 W/m 25,7 km/h (4 Bft)
28.01.2019 09:00 0,5 C 89 % 997,4 hPa 0,0 l/m W-SW 0,50 h 114 W/m 26,8 km/h (4 Bft)
28.01.2019 10:00 0,7 C 86 % 997,6 hPa 0,0 l/m W-SW 0,08 h 147 W/m 27,5 km/h (4 Bft)
28.01.2019 11:00 1,2 C 82 % 997,9 hPa 0,0 l/m SW 0,75 h 254 W/m 28,3 km/h (4 Bft)
28.01.2019 12:00 1,6 C 78 % 997,7 hPa 0,0 l/m W-SW 0,83 h 318 W/m 35,1 km/h (5 Bft)
28.01.2019 13:00 1,8 C 75 % 997,8 hPa 0,0 l/m W-SW 0,92 h 264 W/m 36,2 km/h (5 Bft)
28.01.2019 14:00 1,9 C 74 % 998,3 hPa 0,0 l/m W-SW 0,92 h 215 W/m 31,7 km/h (5 Bft)
28.01.2019 15:00 1,3 C 77 % 998,9 hPa 0,0 l/m W-SW 0,00 h 85 W/m 29,6 km/h (5 Bft)
28.01.2019 16:00 0,8 C 83 % 999,4 hPa 0,0 l/m W-SW 0,00 h 35 W/m 28,2 km/h (4 Bft)
28.01.2019 17:00 0,6 C 85 % 1000,1 hPa 0,0 l/m W-SW 0,00 h 5 W/m 27,2 km/h (4 Bft)
28.01.2019 18:00 0,5 C 87 % 1001,2 hPa 0,0 l/m W 0,00 h 0 W/m 27,6 km/h (4 Bft)
28.01.2019 19:00 0,2 C 91 % 1002,1 hPa 0,0 l/m W-SW 0,00 h 0 W/m 23,4 km/h (4 Bft)
28.01.2019 20:00 0,2 C 92 % 1003,0 hPa 0,0 l/m W-SW 0,00 h 0 W/m 18,9 km/h (3 Bft)
28.01.2019 21:00 0,0 C 94 % 1003,8 hPa 0,0 l/m W 0,00 h 0 W/m 17,0 km/h (3 Bft)
28.01.2019 22:00 -0,1 C 94 % 1004,8 hPa 0,0 l/m W 0,00 h 0 W/m 14,4 km/h (3 Bft)
28.01.2019 23:00 -0,1 C 94 % 1005,3 hPa 0,0 l/m W 0,00 h 0 W/m 12,8 km/h (3 Bft)
29.01.2019 00:00 -0,2 C 94 % 1005,9 hPa 0,6 l/m W 0,00 h 0 W/m 8,2 km/h (2 Bft)
29.01.2019 01:00 -0,8 C 95 % 1006,2 hPa 0,2 l/m W 0,00 h 0 W/m 7,5 km/h (2 Bft)
29.01.2019 02:00 -1,0 C 95 % 1006,6 hPa 0,0 l/m W 0,00 h 0 W/m 11,4 km/h (2 Bft)
29.01.2019 03:00 -1,1 C 94 % 1007,1 hPa 0,0 l/m W 0,00 h 0 W/m 12,8 km/h (3 Bft)
29.01.2019 04:00 -1,3 C 93 % 1007,7 hPa 0,0 l/m W-SW 0,00 h 0 W/m 9,8 km/h (2 Bft)
29.01.2019 05:00 -1,6 C 93 % 1008,2 hPa 0,0 l/m W 0,00 h 0 W/m 9,0 km/h (2 Bft)
29.01.2019 06:00 -1,6 C 93 % 1008,4 hPa 0,0 l/m W 0,00 h 0 W/m 1,7 km/h (1 Bft)
29.01.2019 07:00 -1,7 C 93 % 1008,9 hPa 0,0 l/m N 0,00 h 0 W/m 0,0 km/h (0 Bft)
29.01.2019 08:00 -1,6 C 93 % 1009,0 hPa 0,0 l/m W 0,00 h 15 W/m 1,7 km/h (1 Bft)
29.01.2019 09:00 -1,0 C 94 % 1009,0 hPa 0,0 l/m W-SW 0,00 h 46 W/m 5,8 km/h (2 Bft)
29.01.2019 10:00 -0,2 C 92 % 1008,7 hPa 0,0 l/m W-SW 0,50 h 178 W/m 3,8 km/h (1 Bft)
29.01.2019 11:00 0,8 C 85 % 1008,1 hPa 0,0 l/m S-SW 1,00 h 364 W/m 7,3 km/h (2 Bft)
29.01.2019 12:00 1,7 C 82 % 1006,9 hPa 0,0 l/m S-SW 0,83 h 408 W/m 12,6 km/h (3 Bft)
29.01.2019 13:00 2,3 C 74 % 1005,6 hPa 0,0 l/m S-SW 0,67 h 325 W/m 12,1 km/h (2 Bft)
29.01.2019 14:00 2,5 C 66 % 1004,6 hPa 0,0 l/m S-SW 0,92 h 324 W/m 5,5 km/h (1 Bft)
29.01.2019 15:00 2,1 C 64 % 1004,1 hPa 0,0 l/m N 0,58 h 152 W/m 1,1 km/h (0 Bft)
29.01.2019 16:00 1,1 C 69 % 1003,4 hPa 0,0 l/m S-SW 0,00 h 38 W/m 2,7 km/h (1 Bft)
29.01.2019 17:00 -0,1 C 74 % 1002,5 hPa 0,0 l/m N 0,00 h 8 W/m 0,0 km/h (0 Bft)
29.01.2019 18:00 -1,5 C 77 % 1001,7 hPa 0,0 l/m N 0,00 h 0 W/m 0,0 km/h (0 Bft)
29.01.2019 19:00 -2,8 C 81 % 1000,8 hPa 0,0 l/m N 0,00 h 0 W/m 0,0 km/h (0 Bft)
29.01.2019 20:00 -3,6 C 84 % 999,8 hPa 0,0 l/m N 0,00 h 0 W/m 0,0 km/h (0 Bft)
29.01.2019 21:00 -4,0 C 86 % 998,9 hPa 0,0 l/m N 0,00 h 0 W/m 0,0 km/h (0 Bft)
29.01.2019 22:00 -4,3 C 87 % 998,0 hPa 0,0 l/m N 0,00 h 0 W/m 0,1 km/h (0 Bft)
29.01.2019 23:00 -4,7 C 88 % 997,1 hPa 0,0 l/m N 0,00 h 0 W/m 0,0 km/h (0 Bft)
30.01.2019 00:00 -4,8 C 88 % 996,3 hPa 0,0 l/m N 0,00 h 0 W/m 0,0 km/h (0 Bft)
30.01.2019 01:00 -5,4 C 89 % 995,4 hPa 0,0 l/m N 0,00 h 0 W/m 0,0 km/h (0 Bft)
30.01.2019 02:00 -5,5 C 90 % 994,9 hPa 0,0 l/m N 0,00 h 0 W/m 0,0 km/h (0 Bft)
30.01.2019 03:00 -5,1 C 91 % 994,2 hPa 0,0 l/m N 0,00 h 0 W/m 0,0 km/h (0 Bft)
30.01.2019 04:00 -4,7 C 92 % 993,7 hPa 0,0 l/m N 0,00 h 0 W/m 0,0 km/h (0 Bft)
30.01.2019 05:00 -4,3 C 92 % 993,5 hPa 0,0 l/m N 0,00 h 0 W/m 0,0 km/h (0 Bft)
30.01.2019 06:00 -4,1 C 92 % 993,4 hPa 0,0 l/m N 0,00 h 0 W/m 1,1 km/h (0 Bft)
30.01.2019 07:00 -3,9 C 92 % 993,6 hPa 0,0 l/m N 0,00 h 0 W/m 0,4 km/h (0 Bft)
30.01.2019 08:00 -3,8 C 91 % 994,8 hPa 0,0 l/m N 0,00 h 23 W/m 1,1 km/h (0 Bft)
30.01.2019 09:00 -3,0 C 91 % 995,3 hPa 0,0 l/m SW 0,00 h 91 W/m 3,9 km/h (1 Bft)
30.01.2019 10:00 -0,9 C 86 % 995,6 hPa 0,0 l/m SW 0,75 h 231 W/m 13,1 km/h (3 Bft)
30.01.2019 11:00 2,2 C 74 % 996,0 hPa 0,0 l/m SW 0,58 h 220 W/m 34,3 km/h (5 Bft)
30.01.2019 12:00 2,5 C 72 % 996,5 hPa 0,0 l/m W-SW 0,25 h 210 W/m 40,0 km/h (6 Bft)
30.01.2019 13:00 2,1 C 75 % 996,6 hPa 0,0 l/m W 0,00 h 167 W/m 38,1 km/h (5 Bft)
30.01.2019 14:00 1,5 C 80 % 997,2 hPa 0,0 l/m W 0,00 h 150 W/m 32,6 km/h (5 Bft)
30.01.2019 15:00 1,4 C 77 % 997,9 hPa 0,0 l/m W-SW 0,08 h 100 W/m 31,0 km/h (5 Bft)
30.01.2019 16:00 1,2 C 77 % 998,5 hPa 0,0 l/m W-SW 0,33 h 51 W/m 26,3 km/h (4 Bft)
30.01.2019 17:00 0,9 C 76 % 999,2 hPa 0,0 l/m W-SW 0,17 h 12 W/m 22,9 km/h (4 Bft)
30.01.2019 18:00 0,2 C 78 % 1000,1 hPa 0,0 l/m W-SW 0,00 h 0 W/m 18,2 km/h (3 Bft)
30.01.2019 19:00 -0,3 C 79 % 1000,5 hPa 0,0 l/m SW 0,00 h 0 W/m 13,7 km/h (3 Bft)
30.01.2019 20:00 -0,8 C 75 % 1000,4 hPa 0,0 l/m W-SW 0,00 h 0 W/m 13,6 km/h (3 Bft)
30.01.2019 21:00 -1,4 C 73 % 1000,5 hPa 0,0 l/m W-SW 0,00 h 0 W/m 8,1 km/h (2 Bft)
30.01.2019 22:00 -2,1 C 77 % 1000,5 hPa 0,0 l/m W-SW 0,00 h 0 W/m 3,8 km/h (1 Bft)
30.01.2019 23:00 -3,3 C 80 % 1000,2 hPa 0,0 l/m N 0,00 h 0 W/m 0,0 km/h (0 Bft)
31.01.2019 00:00 -4,4 C 82 % 999,7 hPa 0,0 l/m N 0,00 h 0 W/m 0,0 km/h (0 Bft)
31.01.2019 01:00 -5,2 C 84 % 999,2 hPa 0,0 l/m N 0,00 h 0 W/m 0,0 km/h (0 Bft)
31.01.2019 02:00 -5,9 C 86 % 998,9 hPa 0,0 l/m N 0,00 h 0 W/m 0,0 km/h (0 Bft)
31.01.2019 03:00 -6,4 C 87 % 998,4 hPa 0,0 l/m N 0,00 h 0 W/m 0,0 km/h (0 Bft)
31.01.2019 04:00 -6,8 C 88 % 998,1 hPa 0,0 l/m N 0,00 h 0 W/m 0,0 km/h (0 Bft)
31.01.2019 05:00 -7,4 C 89 % 998,2 hPa 0,0 l/m N 0,00 h 0 W/m 0,0 km/h (0 Bft)
31.01.2019 06:00 -7,8 C 89 % 998,2 hPa 0,0 l/m N 0,00 h 0 W/m 0,0 km/h (0 Bft)
31.01.2019 07:00 -7,5 C 91 % 998,5 hPa 0,0 l/m N 0,00 h 6 W/m 0,0 km/h (0 Bft)
31.01.2019 08:00 -6,4 C 92 % 999,2 hPa 0,0 l/m N 0,33 h 38 W/m 0,0 km/h (0 Bft)
31.01.2019 09:00 -5,0 C 93 % 999,2 hPa 0,0 l/m W-SW 0,00 h 85 W/m 1,6 km/h (1 Bft)
31.01.2019 10:00 -3,1 C 90 % 999,4 hPa 0,0 l/m SW 0,17 h 131 W/m 5,1 km/h (1 Bft)
31.01.2019 11:00 -1,8 C 86 % 999,6 hPa 0,0 l/m SW 0,00 h 151 W/m 15,0 km/h (3 Bft)
31.01.2019 12:00 -1,2 C 88 % 998,9 hPa 0,0 l/m S-SW 0,00 h 194 W/m 12,2 km/h (2 Bft)
31.01.2019 13:00 -0,0 C 89 % 997,8 hPa 0,0 l/m SW 0,83 h 350 W/m 12,2 km/h (2 Bft)
31.01.2019 14:00 1,1 C 85 % 997,2 hPa 0,0 l/m S-SW 0,67 h 264 W/m 9,4 km/h (2 Bft)
31.01.2019 15:00 1,4 C 79 % 996,9 hPa 0,0 l/m W-SW 0,50 h 135 W/m 4,6 km/h (1 Bft)
31.01.2019 16:00 0,2 C 84 % 996,6 hPa 0,0 l/m N 0,00 h 28 W/m 0,5 km/h (0 Bft)
31.01.2019 17:00 -0,2 C 85 % 996,2 hPa 0,0 l/m N 0,00 h 8 W/m 0,0 km/h (0 Bft)
31.01.2019 18:00 -0,4 C 87 % 995,9 hPa 0,0 l/m N 0,00 h 0 W/m 0,0 km/h (0 Bft)
31.01.2019 19:00 -0,4 C 87 % 995,0 hPa 0,0 l/m N 0,00 h 0 W/m 0,3 km/h (0 Bft)
31.01.2019 20:00 -0,5 C 87 % 994,1 hPa 0,0 l/m SW 0,00 h 0 W/m 0,8 km/h (0 Bft)
31.01.2019 21:00 -0,3 C 81 % 993,7 hPa 0,0 l/m S-SW 0,00 h 0 W/m 1,7 km/h (1 Bft)
31.01.2019 22:00 0,1 C 78 % 993,5 hPa 0,0 l/m N 0,00 h 0 W/m 0,5 km/h (0 Bft)
31.01.2019 23:00 0,1 C 77 % 992,7 hPa 0,0 l/m N 0,00 h 0 W/m 0,0 km/h (0 Bft)
01.02.2019 00:00 -0,1 C 78 % 992,2 hPa 0,0 l/m N 0,00 h 0 W/m 0,0 km/h (0 Bft)
01.02.2019 01:00 -0,2 C 79 % 992,4 hPa 0,0 l/m S-SW 0,00 h 0 W/m 2,4 km/h (1 Bft)
01.02.2019 02:00 -0,2 C 80 % 992,8 hPa 0,0 l/m N 0,00 h 0 W/m 0,0 km/h (0 Bft)
01.02.2019 03:00 -0,2 C 82 % 993,0 hPa 0,0 l/m N 0,00 h 0 W/m 0,0 km/h (0 Bft)
01.02.2019 04:00 -0,3 C 82 % 992,5 hPa 0,0 l/m N 0,00 h 0 W/m 0,4 km/h (0 Bft)
01.02.2019 05:00 -0,7 C 82 % 992,5 hPa 0,0 l/m N 0,00 h 0 W/m 0,0 km/h (0 Bft)
01.02.2019 06:00 -0,8 C 84 % 992,2 hPa 0,0 l/m N 0,00 h 0 W/m 0,7 km/h (0 Bft)
01.02.2019 07:00 -0,9 C 85 % 992,2 hPa 0,0 l/m S-SW 0,00 h 0 W/m 0,5 km/h (0 Bft)
01.02.2019 08:00 -0,8 C 85 % 992,5 hPa 0,0 l/m N 0,00 h 26 W/m 0,0 km/h (0 Bft)
01.02.2019 09:00 -0,1 C 85 % 992,4 hPa 0,0 l/m N 0,00 h 68 W/m 0,0 km/h (0 Bft)
01.02.2019 10:00 1,1 C 82 % 992,3 hPa 0,0 l/m S-SW 0,00 h 90 W/m 1,6 km/h (1 Bft)
01.02.2019 11:00 2,0 C 82 % 992,0 hPa 0,0 l/m N 0,00 h 127 W/m 8,4 km/h (2 Bft)
01.02.2019 12:00 1,9 C 87 % 991,7 hPa 0,0 l/m N 0,00 h 124 W/m 2,3 km/h (1 Bft)
01.02.2019 13:00 1,8 C 89 % 990,7 hPa 0,0 l/m N 0,00 h 96 W/m 2,5 km/h (1 Bft)
01.02.2019 14:00 2,0 C 88 % 989,3 hPa 0,0 l/m N 0,00 h 76 W/m 4,1 km/h (1 Bft)
01.02.2019 15:00 2,1 C 87 % 988,5 hPa 0,0 l/m N 0,00 h 45 W/m 2,4 km/h (1 Bft)
01.02.2019 16:00 1,9 C 87 % 988,1 hPa 0,0 l/m N 0,00 h 16 W/m 7,3 km/h (2 Bft)
01.02.2019 17:00 1,5 C 88 % 987,5 hPa 0,0 l/m N 0,00 h 5 W/m 7,4 km/h (2 Bft)
01.02.2019 18:00 1,3 C 90 % 987,2 hPa 0,0 l/m N 0,00 h 0 W/m 9,5 km/h (2 Bft)
01.02.2019 19:00 0,9 C 91 % 987,5 hPa 0,0 l/m N-NO 0,00 h 0 W/m 5,1 km/h (1 Bft)
01.02.2019 20:00 0,7 C 92 % 988,1 hPa 0,0 l/m N-NO 0,00 h 0 W/m 2,9 km/h (1 Bft)
01.02.2019 21:00 0,4 C 93 % 989,3 hPa 0,0 l/m N 0,00 h 0 W/m 0,1 km/h (0 Bft)
01.02.2019 22:00 0,4 C 94 % 989,8 hPa 0,0 l/m N 0,00 h 0 W/m 0,0 km/h (0 Bft)
01.02.2019 23:00 0,5 C 95 % 989,9 hPa 1,0 l/m N 0,00 h 0 W/m 0,8 km/h (0 Bft)
02.02.2019 00:00 0,5 C 95 % 990,3 hPa 0,0 l/m N-NO 0,00 h 0 W/m 1,9 km/h (1 Bft)
02.02.2019 01:00 0,5 C 95 % 990,2 hPa 0,0 l/m N 0,00 h 0 W/m 0,0 km/h (0 Bft)
02.02.2019 02:00 0,3 C 96 % 990,7 hPa 0,0 l/m N 0,00 h 0 W/m 0,0 km/h (0 Bft)
02.02.2019 03:00 0,1 C 96 % 990,7 hPa 0,0 l/m N-NO 0,00 h 0 W/m 0,4 km/h (0 Bft)
02.02.2019 04:00 0,1 C 96 % 991,0 hPa 0,0 l/m N-NO 0,00 h 0 W/m 0,8 km/h (0 Bft)
02.02.2019 05:00 0,1 C 97 % 991,3 hPa 0,0 l/m N 0,00 h 0 W/m 0,0 km/h (0 Bft)
02.02.2019 06:00 0,1 C 97 % 991,9 hPa 0,0 l/m N 0,00 h 0 W/m 0,0 km/h (0 Bft)
02.02.2019 07:00 0,0 C 97 % 992,8 hPa 0,0 l/m N 0,00 h 0 W/m 0,0 km/h (0 Bft)
02.02.2019 08:00 0,2 C 97 % 993,4 hPa 0,0 l/m N 0,00 h 21 W/m 0,0 km/h (0 Bft)
02.02.2019 09:00 0,8 C 98 % 994,3 hPa 0,0 l/m N 0,17 h 94 W/m 0,0 km/h (0 Bft)
02.02.2019 10:00 1,3 C 98 % 995,2 hPa 0,0 l/m N-NO 0,00 h 64 W/m 6,0 km/h (2 Bft)
02.02.2019 11:00 1,5 C 98 % 996,0 hPa 0,0 l/m S-SW 0,00 h 105 W/m 9,9 km/h (2 Bft)
02.02.2019 12:00 2,9 C 98 % 995,6 hPa 0,0 l/m S-SW 0,75 h 383 W/m 7,9 km/h (2 Bft)
02.02.2019 13:00 4,7 C 94 % 995,6 hPa 0,0 l/m S-SW 1,00 h 391 W/m 3,7 km/h (1 Bft)
02.02.2019 14:00 6,1 C 88 % 995,9 hPa 0,0 l/m NW 1,00 h 326 W/m 4,3 km/h (1 Bft)
02.02.2019 15:00 5,7 C 87 % 996,3 hPa 0,0 l/m N-NW 0,92 h 169 W/m 7,0 km/h (2 Bft)
02.02.2019 16:00 4,1 C 90 % 996,8 hPa 0,0 l/m N-NW 0,00 h 46 W/m 7,5 km/h (2 Bft)
02.02.2019 17:00 2,6 C 93 % 997,8 hPa 0,0 l/m N-NW 0,08 h 10 W/m 3,2 km/h (1 Bft)
02.02.2019 18:00 1,8 C 93 % 998,5 hPa 0,0 l/m N 0,00 h 0 W/m 0,0 km/h (0 Bft)
02.02.2019 19:00 1,3 C 94 % 999,4 hPa 0,0 l/m N-NW 0,00 h 0 W/m 2,0 km/h (1 Bft)
02.02.2019 20:00 1,8 C 95 % 1000,3 hPa 0,0 l/m N-NW 0,00 h 0 W/m 2,9 km/h (1 Bft)
02.02.2019 21:00 2,0 C 96 % 1001,3 hPa 0,0 l/m N-NW 0,00 h 0 W/m 1,5 km/h (1 Bft)
02.02.2019 22:00 2,3 C 96 % 1001,6 hPa 0,0 l/m N 0,00 h 0 W/m 7,6 km/h (2 Bft)
02.02.2019 23:00 2,4 C 97 % 1002,1 hPa 0,4 l/m N 0,00 h 0 W/m 6,3 km/h (2 Bft)
03.02.2019 00:00 2,4 C 97 % 1002,5 hPa 0,2 l/m N 0,00 h 0 W/m 7,9 km/h (2 Bft)
03.02.2019 01:00 2,2 C 97 % 1002,4 hPa 0,0 l/m N-NO 0,00 h 0 W/m 5,2 km/h (1 Bft)
03.02.2019 02:00 1,9 C 97 % 1002,7 hPa 0,0 l/m N-NO 0,00 h 0 W/m 4,5 km/h (1 Bft)
03.02.2019 03:00 1,8 C 97 % 1003,4 hPa 0,4 l/m N-NO 0,00 h 0 W/m 11,8 km/h (2 Bft)
03.02.2019 04:00 1,8 C 97 % 1003,7 hPa 0,2 l/m N 0,00 h 0 W/m 8,6 km/h (2 Bft)
03.02.2019 05:00 1,8 C 97 % 1004,5 hPa 0,2 l/m N 0,00 h 0 W/m 7,2 km/h (2 Bft)
03.02.2019 06:00 1,7 C 97 % 1005,4 hPa 0,0 l/m N 0,00 h 0 W/m 6,6 km/h (2 Bft)
03.02.2019 07:00 1,3 C 97 % 1006,7 hPa 1,6 l/m N 0,00 h 0 W/m 4,1 km/h (1 Bft)
03.02.2019 08:00 0,8 C 97 % 1007,9 hPa 1,4 l/m N 0,00 h 9 W/m 5,9 km/h (2 Bft)
03.02.2019 09:00 0,8 C 98 % 1009,2 hPa 1,0 l/m N 0,00 h 24 W/m 7,1 km/h (2 Bft)
03.02.2019 10:00 0,8 C 98 % 1010,6 hPa 0,6 l/m N 0,00 h 39 W/m 11,5 km/h (2 Bft)
03.02.2019 11:00 0,7 C 98 % 1011,9 hPa 0,6 l/m N 0,00 h 53 W/m 13,2 km/h (3 Bft)
03.02.2019 12:00 0,4 C 98 % 1012,6 hPa 0,4 l/m N-NW 0,00 h 77 W/m 12,1 km/h (2 Bft)
03.02.2019 13:00 -0,0 C 97 % 1013,4 hPa 0,4 l/m N-NW 0,00 h 84 W/m 15,0 km/h (3 Bft)
03.02.2019 14:00 -0,4 C 97 % 1014,7 hPa 0,4 l/m N-NW 0,00 h 86 W/m 12,2 km/h (2 Bft)
03.02.2019 15:00 -0,6 C 97 % 1016,2 hPa 0,4 l/m N-NW 0,00 h 63 W/m 9,0 km/h (2 Bft)
03.02.2019 16:00 -0,6 C 97 % 1017,7 hPa 0,6 l/m N-NW 0,00 h 23 W/m 1,9 km/h (1 Bft)
03.02.2019 17:00 -0,8 C 97 % 1019,2 hPa 0,6 l/m N 0,00 h 6 W/m 1,1 km/h (0 Bft)
03.02.2019 18:00 -0,9 C 97 % 1020,6 hPa 0,4 l/m N 0,00 h 0 W/m 0,0 km/h (0 Bft)
03.02.2019 19:00 -1,0 C 97 % 1021,9 hPa 0,6 l/m N 0,00 h 0 W/m 0,0 km/h (0 Bft)
03.02.2019 20:00 -1,1 C 97 % 1023,0 hPa 0,2 l/m N 0,00 h 0 W/m 0,0 km/h (0 Bft)
03.02.2019 21:00 -1,1 C 97 % 1024,0 hPa 0,0 l/m N 0,00 h 0 W/m 0,0 km/h (0 Bft)
03.02.2019 22:00 -1,3 C 97 % 1024,9 hPa 0,2 l/m N 0,00 h 0 W/m 0,0 km/h (0 Bft)
03.02.2019 23:00 -1,3 C 97 % 1025,9 hPa 0,0 l/m N 0,00 h 0 W/m 0,0 km/h (0 Bft)
Min-Datum _ 31.01.19 29.01.19 01.02.19 - - - - 28.01.19
_ Min-Zeit 06:30 14:55 19:00 - - - - 23:35
Minimum _ -7,9 C 63 % 986,9 hPa - - - - 0,0 km/h (0 Bft)
Max-Datum _ 02.02.19 02.02.19 03.02.19 03.02.19 - 28.01.19 29.01.19 30.01.19
_ Max-Zeit 14:35 11:55 23:55 07:05 - 08:30 12:50 12:10
Maximum _ 6,7 C 99 % 1026,2 hPa 1,6 l/m - 0,08 h 659 W/m 48,3 km/h
W-SW (6 Bft)
Durchschnitt _ -0,3 C 89 % 999,6 hPa #12,6 l/m W-SW #17:10 h 121 W/m 8,1 km/h (2 Bft)